Athens, GA

2:37 AM EST on January 21, 2017 (GMT -0500)
Athens | | Change Station

Elev 807 ft 33.95 °N, 83.33 °W | Updated 11 minutes ago

Partly Cloudy
Partly Cloudy
57 °F
Feels Like 57 °F
N
0
Wind Variable Wind from North

Today
High -- | Low -- °F
--% Chance of Precip.
Yesterday
High -- | Low -- °F
Precip. -- in
Pressure 29.87 in
Visibility 8.0 miles
Clouds Few 700 ft
Few 4700 ft
Dew Point 56 °F
Humidity 96%
Rainfall 0.00 in
Snow Depth Not available.
7:36 AM 5:53 PM
Last Quarter, 37% visible
SPECI KAHN 210726Z AUTO 00000KT 8SM FEW007 FEW047 14/13 A2987 RMK AO2 T01390133
Pressure 29.87 in
Visibility 8.0 miles
Clouds Few 700 ft
Few 4700 ft
Dew Point 56 °F
Humidity 96%
Rainfall 0.00 in
Snow Depth Not available.
7:36 AM 5:53 PM
Last Quarter, 37% visible
SPECI KAHN 210726Z AUTO 00000KT 8SM FEW007 FEW047 14/13 A2987 RMK AO2 T01390133

Get Your Daily Forecast Email!

Thanks for signing up!

Be on the lookout for a verification email in your inbox.

You'll start receiving the daily forecast at 8 AM.

×

10-Day Weather Forecast

Almanac

Astronomy

Jan. 21, 2017 Rise Set
Actual Time
Civil Twilight
Nautical Twilight
Astronomical Twilight
Moon
Length of Visible Light
Length of Day
Tomorrow will be .
, % of the Moon is Illuminated

Today's Extremes

State Highs State Lows

Community

WunderPhotos

Upload Photos

1,962,540 photos uploaded!

WunderBlog® & News

Nearby

Air Quality

  Air Quality AQ Index Pollutant
Not available.

Snow Depth

Station Depth Elevation

Earthquake Activity

City Distance Mag. Time & Date
Minimum magnitude displayed is 2.5.

Coastal Water Temperatures

Place Temperature

Stations

Nearby Weather Stations

Station Location Temp. Windchill Dew Point Humidity Wind Precip. Elev Updated Type
                   

Watches & Warnings

There are currently no watches in effect.